Time;durP1;ratioP1;P1;durP2;ratioP2;P2;SDS_P1;SDS_P2;PMS_P1;PMS_P2;Temp;Humidity;BMP_temperature;BMP_pressure;BME280_temperature;BME280_humidity;BME280_pressure;Samples;Min_cycle;Max_cycle;Signal;HPM_P1;HPM_P2
2023/01/08 00:00:45;;;;;;;4.13;2.23;;;10.20;99.90;;;;;;4979523;28;20490;-85
2023/01/08 00:03:12;;;;;;;8.87;2.53;;;10.20;99.90;;;;;;4978691;28;20455;-85
2023/01/08 00:05:39;;;;;;;8.10;2.70;;;10.20;99.90;;;;;;4979061;28;21028;-85
2023/01/08 00:08:08;;;;;;;4.60;2.93;;;10.10;99.90;;;;;;4992552;28;20459;-86
2023/01/08 00:10:35;;;;;;;4.70;2.87;;;10.10;99.90;;;;;;4999016;28;20508;-86
2023/01/08 00:13:02;;;;;;;7.40;4.00;;;10.00;99.90;;;;;;4997939;28;20979;-86
2023/01/08 00:15:29;;;;;;;6.70;5.50;;;10.00;99.90;;;;;;4998902;28;20482;-86
2023/01/08 00:17:56;;;;;;;10.77;7.63;;;10.00;99.90;;;;;;4988672;28;20471;-86
2023/01/08 00:20:24;;;;;;;9.50;6.40;;;9.90;99.90;;;;;;4980234;28;20482;-85
2023/01/08 00:22:51;;;;;;;7.07;6.40;;;9.90;99.90;;;;;;4988509;28;20450;-86
2023/01/08 00:25:20;;;;;;;10.40;9.70;;;9.90;99.90;;;;;;4997539;28;20482;-85
2023/01/08 00:27:47;;;;;;;14.17;13.07;;;9.80;99.90;;;;;;4998858;28;20458;-86
2023/01/08 00:30:14;;;;;;;14.90;13.93;;;9.80;99.90;;;;;;4992071;28;20455;-85
2023/01/08 00:32:41;;;;;;;21.97;20.67;;;9.70;99.90;;;;;;4979246;28;20479;-87
2023/01/08 00:35:08;;;;;;;28.37;26.87;;;9.70;99.90;;;;;;4983538;28;20466;-86
2023/01/08 00:37:35;;;;;;;33.37;31.77;;;9.60;99.90;;;;;;4998193;28;20458;-87
2023/01/08 00:40:02;;;;;;;42.70;40.80;;;9.60;99.90;;;;;;4994013;28;20945;-86
2023/01/08 00:42:30;;;;;;;47.00;45.00;;;9.50;99.90;;;;;;4978953;28;20542;-85
2023/01/08 00:44:57;;;;;;;48.17;46.27;;;9.50;99.90;;;;;;4978337;28;20478;-86
2023/01/08 00:47:23;;;;;;;52.93;50.77;;;9.50;99.90;;;;;;4978805;28;20457;-87
2023/01/08 00:49:50;;;;;;;53.47;51.37;;;9.40;99.90;;;;;;4989531;28;20462;-85
2023/01/08 00:52:17;;;;;;;49.07;47.17;;;9.50;99.90;;;;;;4998089;28;20517;-86
2023/01/08 00:54:44;;;;;;;74.07;71.33;;;9.40;99.90;;;;;;4987815;28;20475;-86
2023/01/08 00:57:10;;;;;;;88.20;85.00;;;9.50;99.90;;;;;;4978523;28;20824;-86
2023/01/08 00:59:39;;;;;;;86.67;83.47;;;9.50;99.90;;;;;;4986160;28;20522;-85
2023/01/08 01:02:05;;;;;;;85.30;82.13;;;9.50;99.90;;;;;;4999347;28;20660;-86
2023/01/08 01:04:32;;;;;;;89.70;86.30;;;9.60;99.90;;;;;;4994453;28;20478;-89
2023/01/08 01:06:59;;;;;;;82.70;79.60;;;9.60;99.90;;;;;;4981450;28;20458;-86
2023/01/08 01:09:26;;;;;;;75.40;72.50;;;9.70;99.90;;;;;;4986913;28;20461;-85
2023/01/08 01:11:53;;;;;;;68.40;65.80;;;9.70;99.90;;;;;;5001320;28;20489;-86
2023/01/08 01:14:19;;;;;;;61.57;59.17;;;9.70;99.90;;;;;;4997755;28;20449;-85
2023/01/08 01:16:47;;;;;;;32.07;30.33;;;9.70;99.90;;;;;;4981865;28;20472;-87
2023/01/08 01:19:15;;;;;;;18.80;17.40;;;10.00;99.90;;;;;;4987182;28;20454;-87
2023/01/08 01:21:42;;;;;;;18.10;17.10;;;10.10;99.90;;;;;;5000685;28;20458;-85
2023/01/08 01:24:12;;;;;;;14.10;13.30;;;10.20;99.90;;;;;;5000782;28;20474;-86
2023/01/08 01:26:40;;;;;;;12.50;11.50;;;10.20;99.90;;;;;;4983382;28;20550;-86
2023/01/08 01:29:07;;;;;;;11.10;9.20;;;10.20;99.90;;;;;;4981121;28;20451;-87
2023/01/08 01:31:34;;;;;;;6.80;6.23;;;10.20;99.90;;;;;;4997623;28;20450;-86
2023/01/08 01:34:02;;;;;;;6.70;6.10;;;10.30;99.90;;;;;;5000644;28;20450;-85
2023/01/08 01:36:29;;;;;;;7.40;5.90;;;10.40;99.90;;;;;;4984768;28;20473;-85
2023/01/08 01:38:57;;;;;;;10.40;5.43;;;10.40;99.90;;;;;;4999966;28;20458;-85
2023/01/08 01:41:27;;;;;;;7.03;5.43;;;10.40;99.90;;;;;;4999914;28;20537;-86
2023/01/08 01:43:55;;;;;;;8.30;6.60;;;10.40;99.90;;;;;;4996963;28;20507;-86
2023/01/08 01:46:34;;;;;;;9.37;6.07;;;10.40;99.90;;;;;;4981848;28;20490;-88
2023/01/08 01:49:07;;;;;;;9.70;6.20;;;10.50;99.90;;;;;;4983383;28;20714;-85
2023/01/08 01:51:36;;;;;;;8.77;6.47;;;10.40;99.90;;;;;;5000462;28;20517;-85
2023/01/08 01:54:04;;;;;;;7.50;6.80;;;10.30;99.90;;;;;;4999195;28;20511;-86
2023/01/08 01:56:32;;;;;;;9.43;8.30;;;10.20;99.90;;;;;;4987856;28;20899;-86
2023/01/08 01:58:59;;;;;;;10.67;9.97;;;10.10;99.90;;;;;;4983275;28;20448;-85
2023/01/08 02:01:26;;;;;;;13.97;13.17;;;10.00;99.90;;;;;;4983307;28;20462;-86
2023/01/08 02:03:53;;;;;;;17.57;16.60;;;9.90;99.90;;;;;;4981004;28;20454;-85
2023/01/08 02:06:33;;;;;;;23.90;22.40;;;9.90;99.90;;;;;;4981508;28;20478;-85
2023/01/08 02:09:03;;;;;;;21.13;20.13;;;9.80;99.90;;;;;;5000156;28;20468;-85
2023/01/08 02:11:38;;;;;;;23.97;22.87;;;9.90;99.90;;;;;;5000601;28;20833;-86
2023/01/08 02:14:09;;;;;;;20.37;19.27;;;9.90;99.90;;;;;;4999125;28;20967;-86
2023/01/08 02:16:42;;;;;;;23.80;22.40;;;9.90;99.90;;;;;;4998403;28;20486;-86
2023/01/08 02:19:17;;;;;;;19.40;18.20;;;9.90;99.90;;;;;;4980652;28;20523;-85
2023/01/08 02:21:58;;;;;;;24.97;23.77;;;9.90;99.90;;;;;;4999682;28;20454;-85
2023/01/08 02:24:35;;;;;;;27.47;26.17;;;9.90;99.90;;;;;;4993959;28;20538;-85
2023/01/08 02:27:06;;;;;;;28.40;26.20;;;9.90;99.90;;;;;;4980527;28;20454;-86
2023/01/08 02:29:34;;;;;;;38.07;36.07;;;9.90;99.90;;;;;;4988005;28;20443;-86
2023/01/08 02:32:02;;;;;;;46.87;44.47;;;9.80;99.90;;;;;;5000752;28;20461;-86
2023/01/08 02:34:30;;;;;;;54.10;52.00;;;9.80;99.90;;;;;;4998365;28;20451;-85
2023/01/08 02:36:58;;;;;;;65.90;63.07;;;9.70;99.90;;;;;;5000536;28;20457;-86
2023/01/08 02:39:56;;;;;;;78.47;75.60;;;9.70;99.90;;;;;;4998399;28;20545;-85
2023/01/08 02:42:35;;;;;;;90.00;86.77;;;9.60;99.90;;;;;;5000918;28;20462;-86
2023/01/08 02:45:08;;;;;;;107.60;103.53;;;9.60;99.90;;;;;;4999196;28;20482;-86
2023/01/08 02:47:39;;;;;;;123.80;119.63;;;9.60;99.90;;;;;;5000867;28;20456;-85
2023/01/08 02:50:15;;;;;;;149.33;144.33;;;9.60;99.90;;;;;;4996047;28;20837;-86
2023/01/08 02:52:49;;;;;;;169.37;163.70;;;9.60;99.90;;;;;;5000330;28;20453;-85
2023/01/08 02:55:17;;;;;;;192.57;186.47;;;9.60;99.90;;;;;;4984288;28;20472;-85
2023/01/08 02:57:47;;;;;;;208.33;201.73;;;9.50;99.90;;;;;;4980460;28;20458;-86
2023/01/08 03:00:14;;;;;;;207.33;200.67;;;9.50;99.90;;;;;;4994378;28;20490;-86
2023/01/08 03:02:42;;;;;;;212.83;206.10;;;9.50;99.90;;;;;;4999510;28;20834;-86
2023/01/08 03:05:17;;;;;;;233.27;225.83;;;9.50;99.90;;;;;;4985685;28;20493;-86
2023/01/08 03:07:43;;;;;;;210.40;203.63;;;9.50;99.90;;;;;;4979727;28;20444;-85
2023/01/08 03:10:11;;;;;;;251.77;243.83;;;9.60;99.90;;;;;;4997684;28;20464;-85
2023/01/08 03:12:50;;;;;;;263.47;255.30;;;9.50;99.90;;;;;;5000565;28;20461;-86
2023/01/08 03:15:24;;;;;;;266.43;258.13;;;9.50;99.90;;;;;;4999315;28;20549;-86
2023/01/08 03:17:54;;;;;;;270.60;262.13;;;9.60;99.90;;;;;;5000667;28;20458;-85
2023/01/08 03:20:24;;;;;;;271.03;262.63;;;9.50;99.90;;;;;;4982968;28;20455;-85
2023/01/08 03:22:54;;;;;;;278.80;270.07;;;9.50;99.90;;;;;;4981110;28;20454;-85
2023/01/08 03:25:24;;;;;;;281.93;273.13;;;9.50;99.90;;;;;;4981232;28;20483;-85
2023/01/08 03:27:56;;;;;;;277.10;268.50;;;9.50;99.90;;;;;;4980309;28;20459;-85
2023/01/08 03:30:24;;;;;;;288.53;279.53;;;9.50;99.90;;;;;;4998393;28;20811;-86
2023/01/08 03:32:54;;;;;;;315.60;305.33;;;9.50;99.90;;;;;;5001439;28;20461;-86
2023/01/08 03:35:23;;;;;;;311.73;301.73;;;9.40;99.90;;;;;;4984911;28;20477;-85
2023/01/08 03:37:55;;;;;;;267.20;258.50;;;9.40;99.90;;;;;;4981994;28;20463;-85
2023/01/08 03:40:26;;;;;;;325.13;314.63;;;9.50;99.90;;;;;;4981979;28;20447;-85
2023/01/08 03:42:56;;;;;;;348.10;336.50;;;9.40;99.90;;;;;;4981116;28;20466;-87
2023/01/08 03:45:24;;;;;;;372.53;359.70;;;9.40;99.90;;;;;;4980703;28;20487;-85
2023/01/08 03:47:51;;;;;;;372.57;359.83;;;9.30;99.90;;;;;;4981421;28;20463;-85
2023/01/08 03:50:22;;;;;;;391.63;377.83;;;9.30;99.90;;;;;;4991590;28;20461;-85
2023/01/08 03:52:49;;;;;;;372.87;360.00;;;9.30;99.90;;;;;;5000862;28;20458;-84
2023/01/08 03:55:16;;;;;;;362.40;349.90;;;9.30;99.90;;;;;;4983962;28;20482;-85
2023/01/08 03:57:43;;;;;;;392.60;378.57;;;9.40;99.90;;;;;;4981062;28;20466;-85
2023/01/08 04:00:12;;;;;;;376.77;362.93;;;9.40;99.90;;;;;;4998140;28;20457;-85
2023/01/08 04:02:40;;;;;;;374.00;361.00;;;9.50;99.90;;;;;;5000757;28;20462;-85
2023/01/08 04:05:08;;;;;;;392.47;378.57;;;9.40;99.90;;;;;;4985241;28;20486;-85
2023/01/08 04:07:35;;;;;;;263.63;255.27;;;9.40;99.90;;;;;;4981415;28;20450;-85
2023/01/08 04:10:04;;;;;;;111.67;107.93;;;9.50;99.90;;;;;;4989003;28;20454;-86
2023/01/08 04:12:31;;;;;;;87.17;83.93;;;9.70;99.90;;;;;;5000576;28;20460;-85
2023/01/08 04:14:57;;;;;;;90.33;87.20;;;9.80;99.90;;;;;;4986478;28;20481;-85
2023/01/08 04:17:26;;;;;;;52.83;50.87;;;9.80;99.90;;;;;;4978184;28;20459;-86
2023/01/08 04:19:52;;;;;;;105.83;101.73;;;9.80;99.90;;;;;;4977620;28;20459;-88
2023/01/08 04:22:19;;;;;;;72.47;69.87;;;9.80;99.90;;;;;;4996892;28;20445;-87
2023/01/08 04:24:46;;;;;;;57.53;55.30;;;9.80;99.90;;;;;;4996596;28;21035;-86
2023/01/08 04:27:13;;;;;;;42.27;40.63;;;9.70;99.90;;;;;;4978504;28;20473;-86
2023/01/08 04:29:39;;;;;;;36.00;34.50;;;9.80;99.90;;;;;;4978573;28;20459;-86
2023/01/08 04:32:06;;;;;;;32.20;30.77;;;9.80;99.90;;;;;;4994372;28;20454;-88
2023/01/08 04:34:34;;;;;;;29.87;28.50;;;9.80;99.90;;;;;;4987409;28;20461;-86
2023/01/08 04:37:03;;;;;;;24.97;23.87;;;9.80;99.90;;;;;;4994880;28;20461;-86
2023/01/08 04:39:30;;;;;;;34.00;32.60;;;9.80;99.90;;;;;;5000417;28;20462;-86
2023/01/08 04:41:57;;;;;;;31.40;30.10;;;9.70;99.90;;;;;;4989897;28;20459;-86
2023/01/08 04:44:23;;;;;;;28.50;27.30;;;9.70;99.90;;;;;;4980888;28;20455;-87
2023/01/08 04:46:50;;;;;;;24.67;23.67;;;9.80;99.90;;;;;;4989292;28;20544;-86
2023/01/08 04:49:17;;;;;;;23.80;22.80;;;9.80;99.90;;;;;;5000112;28;20459;-87
2023/01/08 04:51:45;;;;;;;19.80;18.90;;;9.90;99.90;;;;;;4999577;28;20544;-87
2023/01/08 04:54:12;;;;;;;14.90;14.03;;;9.90;99.90;;;;;;4999908;28;20489;-87
2023/01/08 04:56:39;;;;;;;15.33;14.63;;;9.90;99.90;;;;;;4997738;28;20916;-87
2023/01/08 04:59:06;;;;;;;12.13;11.43;;;9.90;99.90;;;;;;5000217;28;20541;-87
2023/01/08 05:01:33;;;;;;;10.47;9.77;;;10.00;99.90;;;;;;4981745;28;20487;-87
2023/01/08 05:04:02;;;;;;;10.33;9.73;;;9.90;99.90;;;;;;4981209;28;20522;-87
2023/01/08 05:06:31;;;;;;;11.60;10.80;;;10.00;99.90;;;;;;4990552;28;20469;-86
2023/01/08 05:08:59;;;;;;;10.33;9.73;;;9.90;99.90;;;;;;5002356;28;20458;-86
2023/01/08 05:11:26;;;;;;;10.20;9.60;;;9.90;99.90;;;;;;4989929;28;20451;-86
2023/01/08 05:13:53;;;;;;;11.50;10.80;;;9.80;99.90;;;;;;4983789;28;21045;-86
2023/01/08 05:16:21;;;;;;;10.47;9.80;;;9.80;99.90;;;;;;4989029;28;20478;-87
2023/01/08 05:18:48;;;;;;;11.20;10.57;;;9.80;99.90;;;;;;4988834;28;20451;-86
2023/01/08 05:21:15;;;;;;;13.27;12.37;;;9.70;99.90;;;;;;4991285;28;20542;-87
2023/01/08 05:23:46;;;;;;;11.70;11.10;;;9.60;99.90;;;;;;4980585;28;20518;-86
2023/01/08 05:29:22;;;;;;;10.93;10.33;;;9.60;99.90;;;;;;5001930;28;20429;-85
2023/01/08 05:31:49;;;;;;;11.57;10.87;;;9.50;99.90;;;;;;5002108;28;20849;-85
2023/01/08 05:34:15;;;;;;;9.60;9.00;;;9.50;99.90;;;;;;5002693;28;20485;-86
2023/01/08 05:36:43;;;;;;;8.33;7.83;;;9.50;99.90;;;;;;5001273;28;20470;-85
2023/01/08 05:39:10;;;;;;;8.30;7.80;;;9.40;99.90;;;;;;5002880;28;20461;-86
2023/01/08 05:41:38;;;;;;;8.97;8.37;;;9.40;99.90;;;;;;4994357;28;20541;-85
2023/01/08 05:44:05;;;;;;;10.03;9.37;;;9.40;99.90;;;;;;4999635;28;20450;-84
2023/01/08 05:46:32;;;;;;;10.10;9.43;;;9.30;99.90;;;;;;5000137;28;20485;-86
2023/01/08 05:48:58;;;;;;;8.67;8.07;;;9.20;99.90;;;;;;4984145;28;20550;-85
2023/01/08 05:51:25;;;;;;;9.83;8.43;;;9.30;99.90;;;;;;4984532;28;20462;-85
2023/01/08 05:53:52;;;;;;;10.63;8.53;;;9.30;99.90;;;;;;4984033;28;20466;-87
2023/01/08 05:56:19;;;;;;;7.93;7.43;;;9.20;99.90;;;;;;4984610;28;20467;-86
2023/01/08 05:58:47;;;;;;;8.37;7.87;;;9.20;99.90;;;;;;4992290;28;20557;-85
2023/01/08 06:01:15;;;;;;;8.20;7.70;;;9.20;99.90;;;;;;5001702;28;20501;-85
2023/01/08 06:03:42;;;;;;;9.87;9.07;;;9.20;99.90;;;;;;4999046;28;20461;-85
2023/01/08 06:06:11;;;;;;;10.03;9.43;;;9.20;99.90;;;;;;4983785;28;20485;-85
2023/01/08 06:08:38;;;;;;;12.07;11.47;;;9.10;99.90;;;;;;4983732;28;20447;-86
2023/01/08 06:11:07;;;;;;;22.83;20.53;;;9.10;99.90;;;;;;4983048;28;20473;-84
2023/01/08 06:13:36;;;;;;;12.70;12.07;;;9.20;99.90;;;;;;5000049;28;20537;-85
2023/01/08 06:16:05;;;;;;;12.50;11.80;;;9.20;99.90;;;;;;5000359;28;20569;-85
2023/01/08 06:18:32;;;;;;;9.33;8.83;;;9.30;99.90;;;;;;4988007;28;20454;-87
2023/01/08 06:20:58;;;;;;;7.63;6.90;;;9.30;99.90;;;;;;5001520;28;20465;-85
2023/01/08 06:23:26;;;;;;;7.57;6.87;;;9.50;99.90;;;;;;5003351;28;20462;-86
2023/01/08 06:25:53;;;;;;;8.47;7.87;;;9.50;99.90;;;;;;5002657;28;20482;-85
2023/01/08 06:28:20;;;;;;;7.63;7.03;;;9.60;99.90;;;;;;5003470;28;20450;-86
2023/01/08 06:30:47;;;;;;;17.20;16.40;;;9.60;99.90;;;;;;5003432;28;20469;-84
2023/01/08 06:33:15;;;;;;;21.10;19.70;;;9.50;99.90;;;;;;5003044;28;20458;-85
2023/01/08 06:35:42;;;;;;;9.13;8.53;;;9.10;99.90;;;;;;5002761;28;20479;-84
2023/01/08 06:38:09;;;;;;;15.60;14.37;;;8.60;99.90;;;;;;4988173;28;20451;-85
2023/01/08 06:40:36;;;;;;;14.00;13.10;;;8.50;99.90;;;;;;4988278;28;20451;-84
2023/01/08 06:43:03;;;;;;;15.23;14.33;;;8.30;99.90;;;;;;4988632;28;20459;-84
2023/01/08 06:45:30;;;;;;;33.87;32.47;;;8.10;99.90;;;;;;4994312;28;20474;-84
2023/01/08 06:48:00;;;;;;;40.23;38.63;;;8.00;99.90;;;;;;4997621;28;20455;-85
2023/01/08 06:50:28;;;;;;;103.17;99.60;;;7.80;99.90;;;;;;4983358;28;20455;-84
2023/01/08 06:52:56;;;;;;;145.40;140.67;;;7.80;99.90;;;;;;4982729;28;20443;-86
2023/01/08 06:55:24;;;;;;;231.53;223.53;;;7.70;99.90;;;;;;4981713;28;20475;-84
2023/01/08 06:57:54;;;;;;;308.97;299.40;;;7.60;99.90;;;;;;4983725;28;20451;-84
2023/01/08 07:00:22;;;;;;;374.40;362.90;;;7.60;99.90;;;;;;4985372;28;20451;-84
2023/01/08 07:02:49;;;;;;;439.80;424.90;;;7.60;99.90;;;;;;4988684;28;20529;-84
2023/01/08 07:05:16;;;;;;;506.33;487.93;;;7.60;99.90;;;;;;4988474;28;20863;-84
2023/01/08 07:07:44;;;;;;;526.23;506.30;;;7.50;99.90;;;;;;4984368;28;20462;-84
2023/01/08 07:10:11;;;;;;;500.43;482.07;;;7.50;99.90;;;;;;4987454;28;20458;-84
2023/01/08 07:12:38;;;;;;;498.80;480.27;;;7.60;99.90;;;;;;4989363;28;20461;-85
2023/01/08 07:15:06;;;;;;;484.47;467.00;;;7.50;99.90;;;;;;4987379;28;20485;-84
2023/01/08 07:17:33;;;;;;;442.00;426.37;;;7.50;99.90;;;;;;4985690;28;20546;-86
2023/01/08 07:20:00;;;;;;;461.33;444.27;;;7.60;99.90;;;;;;4986736;28;20579;-85
2023/01/08 07:22:28;;;;;;;489.70;471.17;;;7.60;99.90;;;;;;4990751;28;20450;-84
2023/01/08 07:24:56;;;;;;;494.57;476.27;;;7.50;99.90;;;;;;4985932;28;20470;-85
2023/01/08 07:27:23;;;;;;;476.00;459.07;;;7.60;99.90;;;;;;4995805;28;20478;-85
2023/01/08 07:29:57;;;;;;;470.40;453.50;;;7.60;99.90;;;;;;4993969;28;21018;-85
2023/01/08 07:32:24;;;;;;;454.03;438.07;;;7.60;99.90;;;;;;4998696;28;20461;-85
2023/01/08 07:34:53;;;;;;;458.20;441.07;;;7.70;99.90;;;;;;4993351;28;20474;-86
2023/01/08 07:37:20;;;;;;;399.60;386.10;;;7.70;99.90;;;;;;4984226;28;20530;-86
2023/01/08 07:39:46;;;;;;;454.07;437.83;;;7.70;99.90;;;;;;4987203;28;20457;-85
2023/01/08 07:42:14;;;;;;;467.60;450.70;;;7.80;99.90;;;;;;4992931;28;20535;-86
2023/01/08 07:44:41;;;;;;;419.13;404.73;;;7.70;99.90;;;;;;4988713;28;20478;-85
2023/01/08 07:47:08;;;;;;;355.90;343.97;;;7.80;99.90;;;;;;4985937;28;20486;-85
2023/01/08 07:49:35;;;;;;;341.60;330.40;;;7.80;99.90;;;;;;5000397;28;20971;-85
2023/01/08 07:52:01;;;;;;;271.37;262.70;;;7.90;99.90;;;;;;5000761;28;20949;-88
2023/01/08 07:54:28;;;;;;;222.80;215.87;;;7.90;99.90;;;;;;4999840;28;20521;-85
2023/01/08 07:56:55;;;;;;;200.17;193.97;;;7.90;99.90;;;;;;5000320;28;20454;-85
2023/01/08 07:59:24;;;;;;;125.27;120.97;;;7.90;99.90;;;;;;4988752;28;20450;-85
2023/01/08 08:01:54;;;;;;;70.77;68.20;;;7.90;99.90;;;;;;5000345;28;20454;-83
2023/01/08 08:04:21;;;;;;;38.47;36.10;;;7.90;99.90;;;;;;4982565;28;20489;-86
2023/01/08 08:06:47;;;;;;;32.40;30.60;;;7.80;99.90;;;;;;4988526;28;20521;-85
2023/01/08 08:09:14;;;;;;;25.00;23.90;;;7.80;99.90;;;;;;4997732;28;20481;-86
2023/01/08 08:11:41;;;;;;;23.90;22.10;;;7.70;99.90;;;;;;4994033;28;20455;-85
2023/01/08 08:14:08;;;;;;;26.07;24.53;;;7.60;99.90;;;;;;4986405;28;20460;-85
2023/01/08 08:16:42;;;;;;;36.87;34.57;;;7.50;99.90;;;;;;4983573;28;20490;-85
2023/01/08 08:19:14;;;;;;;64.60;62.13;;;7.50;99.90;;;;;;4987971;28;20486;-86
2023/01/08 08:21:41;;;;;;;60.07;57.67;;;7.60;99.90;;;;;;4986065;28;20450;-86
2023/01/08 08:24:22;;;;;;;79.80;76.17;;;7.80;99.90;;;;;;4997447;28;20482;-86
2023/01/08 08:26:53;;;;;;;100.83;97.03;;;7.70;99.90;;;;;;4996755;28;20485;-86
2023/01/08 08:29:29;;;;;;;101.97;98.27;;;7.80;99.90;;;;;;4991948;28;20466;-86
2023/01/08 08:31:58;;;;;;;93.63;89.73;;;7.70;99.90;;;;;;4990782;28;20458;-87
2023/01/08 08:34:28;;;;;;;99.53;95.70;;;7.70;99.90;;;;;;4993019;28;20455;-85
2023/01/08 08:37:02;;;;;;;95.23;91.50;;;7.70;99.90;;;;;;4994496;28;20454;-88
2023/01/08 08:39:30;;;;;;;173.70;167.55;;;7.80;99.90;;;;;;4990357;28;20555;-85
2023/01/08 08:41:57;;;;;;;141.87;136.37;;;7.70;99.90;;;;;;4990382;28;20597;-86
2023/01/08 08:44:24;;;;;;;133.00;128.10;;;7.70;99.90;;;;;;4983494;28;20497;-86
2023/01/08 08:46:51;;;;;;;119.63;115.30;;;7.70;99.90;;;;;;4989530;28;20475;-87
2023/01/08 08:49:19;;;;;;;153.60;148.25;;;7.70;99.90;;;;;;4994121;28;20547;-85
2023/01/08 08:51:46;;;;;;;112.73;108.60;;;7.70;99.90;;;;;;4987305;28;20199;-86
2023/01/08 08:54:13;;;;;;;98.17;94.57;;;7.70;99.90;;;;;;5001776;28;20468;-85
2023/01/08 08:56:40;;;;;;;104.17;99.90;;;7.70;99.90;;;;;;5003059;28;20467;-85
2023/01/08 08:59:08;;;;;;;113.80;109.70;;;7.60;99.90;;;;;;5001225;28;20988;-87
2023/01/08 09:01:34;;;;;;;149.10;144.00;;;7.60;99.90;;;;;;4994044;28;20834;-85
2023/01/08 09:04:07;;;;;;;149.60;144.20;;;7.70;99.90;;;;;;4989915;28;20526;-85
2023/01/08 09:06:35;;;;;;;161.27;155.67;;;7.60;99.90;;;;;;4988256;28;20474;-84
2023/01/08 09:09:02;;;;;;;269.10;260.40;;;7.60;99.90;;;;;;4993946;28;20462;-86
2023/01/08 09:11:28;;;;;;;345.40;333.50;;;7.60;99.90;;;;;;4995791;28;20518;-85
2023/01/08 09:14:02;;;;;;;403.23;388.53;;;7.50;99.90;;;;;;5007655;28;20458;-87
2023/01/08 09:16:31;;;;;;;461.30;443.23;;;7.50;99.90;;;;;;4990560;28;20493;-87
2023/01/08 09:18:58;;;;;;;490.40;471.30;;;7.50;99.90;;;;;;5002503;28;20822;-86
2023/01/08 09:21:25;;;;;;;545.73;521.07;;;7.60;99.90;;;;;;4999355;28;20961;-87
2023/01/08 09:23:59;;;;;;;616.93;586.37;;;7.70;99.90;;;;;;4993065;28;20454;-84
2023/01/08 09:26:27;;;;;;;625.10;592.70;;;7.90;99.90;;;;;;5003792;28;20504;-86
2023/01/08 09:28:54;;;;;;;604.13;572.00;;;8.10;99.90;;;;;;5003140;28;20482;-86
2023/01/08 09:31:21;;;;;;;571.50;542.20;;;8.40;99.90;;;;;;5000161;28;20477;-85
2023/01/08 09:33:48;;;;;;;526.30;501.30;;;8.70;99.90;;;;;;5003590;28;20499;-84
2023/01/08 09:36:14;;;;;;;447.50;428.37;;;9.00;99.90;;;;;;5002608;28;20476;-85
2023/01/08 09:38:43;;;;;;;327.27;315.57;;;9.30;99.90;;;;;;4996555;28;20456;-86
2023/01/08 09:41:16;;;;;;;205.23;197.83;;;9.50;99.90;;;;;;4992620;28;20451;-84
2023/01/08 09:44:07;;;;;;;74.60;71.60;;;9.60;99.90;;;;;;4997152;28;20965;-88
2023/01/08 09:46:35;;;;;;;29.47;27.40;;;9.60;99.90;;;;;;4992676;28;20476;-85
2023/01/08 09:49:06;;;;;;;18.27;17.10;;;9.70;99.90;;;;;;5000268;28;20903;-88
2023/01/08 09:51:35;;;;;;;14.47;13.37;;;9.80;99.90;;;;;;4992575;28;20451;-87
2023/01/08 09:54:03;;;;;;;10.77;9.93;;;9.90;99.90;;;;;;4990697;28;20455;-85
2023/01/08 09:56:35;;;;;;;9.77;9.07;;;10.00;99.90;;;;;;4988730;28;20473;-86
2023/01/08 09:59:04;;;;;;;11.30;10.60;;;9.90;99.90;;;;;;4989392;28;20493;-85
2023/01/08 10:01:35;;;;;;;14.27;13.57;;;9.80;99.90;;;;;;5000018;28;20537;-87
2023/01/08 10:04:05;;;;;;;7.97;7.27;;;9.80;99.90;;;;;;4993207;28;20447;-83
2023/01/08 10:06:32;;;;;;;5.63;5.13;;;9.80;99.90;;;;;;4987461;28;20525;-83
2023/01/08 10:08:59;;;;;;;12.10;6.03;;;9.80;99.90;;;;;;4996125;28;20465;-85
2023/01/08 10:11:34;;;;;;;7.67;4.60;;;9.80;99.90;;;;;;4989884;28;20980;-84
2023/01/08 10:14:02;;;;;;;7.63;4.43;;;9.90;99.90;;;;;;4990647;28;20458;-84
2023/01/08 10:16:34;;;;;;;4.70;2.20;;;9.90;99.90;;;;;;4998860;28;20475;-84
2023/01/08 10:19:04;;;;;;;5.30;2.20;;;10.00;99.90;;;;;;4990057;28;20991;-82
2023/01/08 10:21:36;;;;;;;4.40;2.20;;;10.10;99.90;;;;;;5000768;28;20489;-84
2023/01/08 10:24:09;;;;;;;7.00;2.23;;;10.20;99.90;;;;;;5009501;28;20824;-84
2023/01/08 10:26:38;;;;;;;6.50;2.73;;;10.50;99.90;;;;;;4996959;28;20479;-83
2023/01/08 10:29:12;;;;;;;4.80;1.83;;;10.80;99.90;;;;;;4994943;28;20946;-85
2023/01/08 10:31:46;;;;;;;12.20;1.80;;;10.80;99.90;;;;;;4996946;28;20449;-83
2023/01/08 10:34:23;;;;;;;4.07;1.53;;;10.80;99.90;;;;;;4996455;28;20463;-85
2023/01/08 10:36:51;;;;;;;4.93;1.50;;;10.90;99.90;;;;;;4992108;28;20477;-81
2023/01/08 10:39:22;;;;;;;5.17;1.60;;;10.90;99.90;;;;;;5000606;28;21043;-81
2023/01/08 10:41:52;;;;;;;10.23;1.63;;;10.90;99.90;;;;;;5007733;28;20451;-83
2023/01/08 10:44:25;;;;;;;6.50;1.60;;;10.90;99.90;;;;;;4991355;28;20495;-83
2023/01/08 10:46:56;;;;;;;4.23;1.60;;;10.80;99.90;;;;;;4988721;28;20462;-83
2023/01/08 10:49:30;;;;;;;3.20;1.37;;;10.90;99.90;;;;;;4997033;28;20478;-83
2023/01/08 10:51:58;;;;;;;4.13;1.40;;;10.90;99.90;;;;;;4990087;28;20458;-85
2023/01/08 10:54:30;;;;;;;10.10;2.63;;;11.20;99.90;;;;;;5000835;28;20450;-83
2023/01/08 10:56:58;;;;;;;4.70;2.30;;;11.20;99.90;;;;;;5009398;28;20502;-83
2023/01/08 10:59:27;;;;;;;5.53;1.63;;;11.20;99.90;;;;;;4997948;28;20466;-83
2023/01/08 11:01:56;;;;;;;5.37;1.63;;;11.30;99.90;;;;;;5005894;28;20980;-84
2023/01/08 11:04:27;;;;;;;3.83;1.23;;;11.50;99.90;;;;;;5008217;28;20470;-83
2023/01/08 11:06:58;;;;;;;7.33;1.50;;;11.60;99.90;;;;;;5002183;28;20493;-85
2023/01/08 11:09:29;;;;;;;3.73;1.30;;;11.60;99.90;;;;;;4999373;28;20489;-83
2023/01/08 11:11:57;;;;;;;4.97;1.30;;;11.70;99.90;;;;;;5002882;28;20518;-84
2023/01/08 11:14:28;;;;;;;6.00;1.67;;;11.80;99.90;;;;;;5006991;28;20454;-84
2023/01/08 11:16:56;;;;;;;9.50;1.23;;;11.90;99.90;;;;;;4995317;28;20474;-84
2023/01/08 11:19:26;;;;;;;7.47;1.60;;;11.80;99.90;;;;;;4989913;28;20542;-84
2023/01/08 11:21:58;;;;;;;4.63;1.30;;;11.70;99.90;;;;;;5004057;28;20461;-85
2023/01/08 11:24:29;;;;;;;5.63;1.00;;;11.70;99.90;;;;;;5007354;28;20442;-85
2023/01/08 11:27:01;;;;;;;4.55;1.05;;;11.50;99.90;;;;;;4997799;28;20468;-84
2023/01/08 11:29:37;;;;;;;4.37;1.27;;;11.40;99.90;;;;;;4985532;28;20199;-84
2023/01/08 11:32:17;;;;;;;6.67;1.63;;;11.30;99.90;;;;;;4986352;28;20465;-81
2023/01/08 11:34:54;;;;;;;4.90;1.03;;;11.20;99.90;;;;;;4987390;28;20467;-83
2023/01/08 11:37:23;;;;;;;3.30;0.90;;;11.20;99.90;;;;;;4995060;28;20454;-83
2023/01/08 11:39:52;;;;;;;5.23;1.17;;;11.20;99.90;;;;;;4992816;28;20447;-83
2023/01/08 11:42:38;;;;;;;7.40;1.00;;;11.20;99.90;;;;;;4993126;28;20516;-82
2023/01/08 11:45:17;;;;;;;3.50;1.10;;;11.30;99.90;;;;;;4993711;28;21833;-84
2023/01/08 11:47:57;;;;;;;3.33;1.00;;;11.20;99.90;;;;;;4992617;28;20477;-86
2023/01/08 11:50:29;;;;;;;3.97;1.73;;;11.20;99.90;;;;;;4983664;28;20471;-83
2023/01/08 11:53:13;;;;;;;3.83;0.87;;;11.10;99.90;;;;;;4982196;28;20459;-84
2023/01/08 11:55:53;;;;;;;3.77;1.27;;;11.10;99.90;;;;;;4989526;28;20474;-83
2023/01/08 11:58:30;;;;;;;3.40;0.90;;;11.10;99.90;;;;;;4987224;28;21013;-83
2023/01/08 12:01:15;;;;;;;3.20;0.87;;;11.20;99.90;;;;;;4985280;28;20454;-84
2023/01/08 12:03:46;;;;;;;3.60;1.10;;;11.30;99.90;;;;;;4983557;28;20519;-83
2023/01/08 12:06:33;;;;;;;4.23;1.03;;;11.40;99.90;;;;;;4987273;28;20475;-84
2023/01/08 12:09:13;;;;;;;5.10;1.20;;;11.50;99.90;;;;;;4998811;28;20480;-83
2023/01/08 12:11:49;;;;;;;3.30;0.80;;;11.60;99.90;;;;;;4999401;28;20456;-83
2023/01/08 12:14:40;;;;;;;4.27;1.00;;;11.60;97.20;;;;;;4983469;28;20455;-84
2023/01/08 12:17:30;;;;;;;4.20;0.93;;;11.70;97.20;;;;;;4997729;28;20812;-83
2023/01/08 12:20:13;;;;;;;4.00;1.10;;;11.60;96.70;;;;;;5000356;28;20467;-83
2023/01/08 12:22:46;;;;;;;5.63;1.17;;;11.40;97.20;;;;;;4991852;28;20462;-83
2023/01/08 12:25:37;;;;;;;5.73;0.90;;;11.30;98.00;;;;;;4998424;28;20465;-83
2023/01/08 12:28:17;;;;;;;3.50;0.90;;;11.40;97.40;;;;;;5002693;28;20470;-83
2023/01/08 12:34:08;;;;;;;5.00;1.00;;;11.30;97.80;;;;;;5003454;28;20493;-84
2023/01/08 12:37:02;;;;;;;5.93;1.03;;;11.30;98.10;;;;;;5002549;28;20564;-83
2023/01/08 12:40:00;;;;;;;;;;;;;;;;;;;;;
2023/01/08 12:42:30;;;;;;;3.40;0.80;;;12.80;96.60;;;;;;5002736;28;20591;-85
2023/01/08 12:45:00;;;;;;;6.27;0.90;;;13.00;94.90;;;;;;5003909;28;20473;-83
2023/01/08 12:47:30;;;;;;;3.57;1.00;;;12.70;94.30;;;;;;5000786;28;20492;-84
2023/01/08 12:50:24;;;;;;;4.27;1.10;;;12.60;94.10;;;;;;4984195;28;20451;-83
2023/01/08 12:52:58;;;;;;;3.80;1.10;;;12.30;94.50;;;;;;4988108;28;20459;-84
2023/01/08 12:55:35;;;;;;;7.47;1.20;;;12.40;95.30;;;;;;4985934;28;20480;-86